Time;durP1;ratioP1;P1;durP2;ratioP2;P2;SDS_P1;SDS_P2;PMS_P1;PMS_P2;Temp;Humidity;BMP_temperature;BMP_pressure;BME280_temperature;BME280_humidity;BME280_pressure;Samples;Min_cycle;Max_cycle;Signal;HPM_P1;HPM_P2
2023/09/26 00:00:42;;;;;;;8.60;6.63;;;14.80;99.90;;;;;;6270690;22;20090;-46
2023/09/26 00:03:08;;;;;;;8.85;6.30;;;14.80;99.90;;;;;;6274034;22;20416;-49
2023/09/26 00:05:34;;;;;;;6.75;5.47;;;14.70;99.90;;;;;;6273046;22;20023;-47
2023/09/26 00:08:03;;;;;;;8.45;6.47;;;14.70;99.90;;;;;;6269921;22;20015;-48
2023/09/26 00:10:30;;;;;;;7.63;6.80;;;14.70;99.90;;;;;;6273705;22;20073;-46
2023/09/26 00:12:56;;;;;;;7.95;7.18;;;14.70;99.90;;;;;;6272170;22;20551;-47
2023/09/26 00:15:21;;;;;;;8.05;7.25;;;14.60;99.90;;;;;;6271737;22;20131;-45
2023/09/26 00:17:47;;;;;;;8.07;7.28;;;14.50;99.90;;;;;;6272773;22;20313;-46
2023/09/26 00:20:23;;;;;;;8.10;6.55;;;14.50;99.90;;;;;;6272494;22;20433;-48
2023/09/26 00:22:49;;;;;;;7.90;7.10;;;14.40;99.90;;;;;;6274156;22;20343;-46
2023/09/26 00:25:15;;;;;;;7.88;7.10;;;14.30;99.90;;;;;;6246187;22;20051;-48
2023/09/26 00:27:41;;;;;;;8.55;7.68;;;14.30;99.90;;;;;;6272644;22;20351;-48
2023/09/26 00:30:10;;;;;;;8.27;7.47;;;14.20;99.90;;;;;;6274160;22;20038;-48
2023/09/26 00:32:39;;;;;;;8.50;7.70;;;14.10;99.90;;;;;;6273665;22;20455;-49
2023/09/26 00:35:08;;;;;;;8.48;7.70;;;14.10;99.90;;;;;;6274464;22;20061;-48
2023/09/26 00:37:34;;;;;;;8.88;7.50;;;14.00;99.90;;;;;;6274001;22;20008;-46
2023/09/26 00:40:00;;;;;;;8.45;7.50;;;13.90;99.90;;;;;;6274437;22;20018;-49
2023/09/26 00:42:26;;;;;;;9.38;8.43;;;13.90;99.90;;;;;;6273325;22;20091;-46
2023/09/26 00:44:52;;;;;;;8.48;7.60;;;13.80;99.90;;;;;;6272966;22;20083;-46
2023/09/26 00:47:19;;;;;;;8.48;7.53;;;13.70;99.90;;;;;;6274224;22;20467;-49
2023/09/26 00:49:44;;;;;;;9.52;8.60;;;13.70;99.90;;;;;;6273681;22;20054;-47
2023/09/26 00:52:10;;;;;;;10.10;8.43;;;13.60;99.90;;;;;;6273402;22;20019;-47
2023/09/26 00:54:37;;;;;;;9.60;8.60;;;13.50;99.90;;;;;;6275972;22;20443;-47
2023/09/26 00:57:04;;;;;;;10.55;9.38;;;13.50;99.90;;;;;;6273261;22;20007;-47
2023/09/26 00:59:31;;;;;;;10.47;8.87;;;13.50;99.90;;;;;;6274349;22;20011;-48
2023/09/26 01:01:58;;;;;;;11.15;8.88;;;13.40;99.90;;;;;;6274599;22;20086;-48
2023/09/26 01:04:23;;;;;;;10.23;9.23;;;13.30;99.90;;;;;;6272158;22;20373;-47
2023/09/26 01:06:49;;;;;;;9.27;8.40;;;13.30;99.90;;;;;;6273249;22;20020;-47
2023/09/26 01:09:15;;;;;;;10.18;9.18;;;13.30;99.90;;;;;;6272347;22;20023;-48
2023/09/26 01:11:41;;;;;;;10.07;9.07;;;13.20;99.90;;;;;;6271242;22;20129;-46
2023/09/26 01:14:07;;;;;;;10.63;9.50;;;13.20;99.90;;;;;;6272497;22;20506;-48
2023/09/26 01:16:32;;;;;;;10.15;9.23;;;13.20;99.90;;;;;;6274095;22;20052;-50
2023/09/26 01:18:58;;;;;;;9.65;8.75;;;13.10;99.90;;;;;;6244985;22;20043;-46
2023/09/26 01:21:24;;;;;;;10.18;9.18;;;13.10;99.90;;;;;;6271085;22;20023;-47
2023/09/26 01:23:57;;;;;;;11.10;10.10;;;;;;;;;;6272652;22;20015;-46
2023/09/26 01:26:23;;;;;;;10.57;9.38;;;13.00;99.90;;;;;;6272968;22;20012;-52
2023/09/26 01:28:49;;;;;;;11.10;9.65;;;13.00;99.90;;;;;;6271174;22;20071;-46
2023/09/26 01:31:15;;;;;;;12.30;11.07;;;13.00;99.90;;;;;;6273878;22;20057;-49
2023/09/26 01:33:41;;;;;;;12.32;11.13;;;12.90;99.90;;;;;;6272932;22;20091;-49
2023/09/26 01:36:06;;;;;;;11.90;10.70;;;12.90;99.90;;;;;;6273443;22;20040;-46
2023/09/26 01:38:32;;;;;;;10.77;9.50;;;12.90;99.90;;;;;;6275722;22;20035;-47
2023/09/26 01:40:58;;;;;;;11.35;10.27;;;12.90;99.90;;;;;;6275442;22;20340;-46
2023/09/26 01:43:25;;;;;;;11.50;10.40;;;12.80;99.90;;;;;;6274031;22;20313;-48
2023/09/26 01:45:51;;;;;;;11.93;10.82;;;12.80;99.90;;;;;;6276049;22;20015;-46
2023/09/26 01:48:16;;;;;;;12.45;10.63;;;12.80;99.90;;;;;;6275994;22;20015;-49
2023/09/26 01:50:42;;;;;;;12.15;10.27;;;12.70;99.90;;;;;;6274518;22;20012;-47
2023/09/26 01:53:10;;;;;;;13.73;10.52;;;12.70;99.90;;;;;;6274975;22;20007;-46
2023/09/26 01:55:38;;;;;;;11.10;10.03;;;12.70;99.90;;;;;;6277407;22;20026;-47
2023/09/26 01:58:04;;;;;;;12.25;9.48;;;12.70;99.90;;;;;;6275557;22;20324;-46
2023/09/26 02:00:30;;;;;;;10.88;9.88;;;12.70;99.90;;;;;;6274887;22;20016;-48
2023/09/26 02:02:57;;;;;;;11.82;10.05;;;12.60;99.90;;;;;;6246215;22;20070;-47
2023/09/26 02:05:23;;;;;;;10.70;9.37;;;12.60;99.90;;;;;;6274655;22;20466;-46
2023/09/26 02:07:49;;;;;;;11.82;10.52;;;12.60;99.90;;;;;;6274536;22;20015;-47
2023/09/26 02:10:16;;;;;;;12.35;9.40;;;12.60;99.90;;;;;;6274175;22;20035;-47
2023/09/26 02:12:47;;;;;;;10.88;9.98;;;12.50;99.90;;;;;;6273284;22;20012;-50
2023/09/26 02:15:13;;;;;;;10.85;9.80;;;12.50;99.90;;;;;;6274999;22;20470;-46
2023/09/26 02:17:42;;;;;;;11.48;10.43;;;12.50;99.90;;;;;;6274483;22;20020;-47
2023/09/26 02:20:13;;;;;;;11.63;10.27;;;12.50;99.90;;;;;;6274573;22;20015;-49
2023/09/26 02:22:46;;;;;;;11.50;10.50;;;12.40;99.90;;;;;;6274315;22;20011;-45
2023/09/26 02:25:13;;;;;;;12.68;10.32;;;12.40;99.90;;;;;;6271974;22;20007;-48
2023/09/26 02:27:41;;;;;;;12.98;11.52;;;12.40;99.90;;;;;;6274397;22;20051;-46
2023/09/26 02:30:08;;;;;;;12.93;10.13;;;12.40;99.90;;;;;;6274477;22;20087;-46
2023/09/26 02:32:35;;;;;;;10.43;9.43;;;12.40;99.90;;;;;;6273334;22;20015;-46
2023/09/26 02:35:02;;;;;;;11.40;10.32;;;12.30;99.90;;;;;;6273349;22;20447;-47
2023/09/26 02:37:28;;;;;;;10.38;9.35;;;12.30;99.90;;;;;;6275348;22;20020;-47
2023/09/26 02:39:53;;;;;;;10.88;9.70;;;12.30;99.90;;;;;;6274747;22;20120;-45
2023/09/26 02:42:19;;;;;;;12.20;10.88;;;12.30;99.90;;;;;;6275076;22;20012;-47
2023/09/26 02:44:45;;;;;;;10.60;9.60;;;12.30;99.90;;;;;;6274381;22;20300;-45
2023/09/26 02:47:10;;;;;;;11.35;10.23;;;12.20;99.90;;;;;;6272313;22;20061;-45
2023/09/26 02:49:36;;;;;;;12.18;10.98;;;12.20;99.90;;;;;;6274295;22;20040;-49
2023/09/26 02:52:02;;;;;;;12.27;10.52;;;12.20;99.90;;;;;;6274867;22;20007;-46
2023/09/26 02:54:28;;;;;;;11.32;10.20;;;12.20;99.90;;;;;;6273015;22;20027;-45
2023/09/26 02:56:55;;;;;;;11.43;10.43;;;12.20;99.90;;;;;;6275442;22;20435;-47
2023/09/26 02:59:21;;;;;;;11.95;10.85;;;12.10;99.90;;;;;;6274664;22;20008;-46
2023/09/26 03:01:46;;;;;;;10.52;9.63;;;12.20;99.90;;;;;;6272218;22;20583;-46
2023/09/26 03:04:12;;;;;;;11.70;10.60;;;12.20;99.90;;;;;;6274415;22;20015;-48
2023/09/26 03:06:37;;;;;;;12.25;10.50;;;12.10;99.90;;;;;;6273950;22;20080;-50
2023/09/26 03:09:03;;;;;;;10.35;9.18;;;12.10;99.90;;;;;;6275400;22;20027;-46
2023/09/26 03:11:29;;;;;;;10.27;9.38;;;12.10;99.90;;;;;;6274118;22;20055;-46
2023/09/26 03:13:55;;;;;;;9.10;8.23;;;12.10;99.90;;;;;;6271491;22;20102;-46
2023/09/26 03:16:20;;;;;;;11.23;10.23;;;12.10;99.90;;;;;;6273658;22;20047;-46
2023/09/26 03:18:52;;;;;;;11.70;10.60;;;12.00;99.90;;;;;;6271989;22;20107;-47
2023/09/26 03:21:17;;;;;;;11.57;10.32;;;12.00;99.90;;;;;;6274791;22;20016;-49
2023/09/26 03:23:43;;;;;;;11.65;10.60;;;12.00;99.90;;;;;;6275569;22;20127;-47
2023/09/26 03:26:10;;;;;;;13.55;10.02;;;12.00;99.90;;;;;;6246574;22;20474;-46
2023/09/26 03:28:36;;;;;;;10.38;9.30;;;11.90;99.90;;;;;;6273735;22;20085;-48
2023/09/26 03:31:06;;;;;;;9.98;9.13;;;11.90;99.90;;;;;;6273402;22;20397;-46
2023/09/26 03:33:32;;;;;;;10.38;9.40;;;11.90;99.90;;;;;;6272337;22;20016;-46
2023/09/26 03:35:59;;;;;;;10.32;9.32;;;11.80;99.90;;;;;;6273180;22;20055;-49
2023/09/26 03:38:24;;;;;;;11.75;10.55;;;11.80;99.90;;;;;;6247675;22;20020;-47
2023/09/26 03:41:01;;;;;;;11.20;10.10;;;11.80;99.90;;;;;;6274381;22;20054;-46
2023/09/26 03:43:27;;;;;;;11.83;10.73;;;11.80;99.90;;;;;;6275397;22;20011;-46
2023/09/26 03:46:02;;;;;;;10.20;9.25;;;11.70;99.90;;;;;;6274092;22;20062;-45
2023/09/26 03:48:29;;;;;;;9.68;8.77;;;11.70;99.90;;;;;;6273615;22;20027;-46
2023/09/26 03:50:54;;;;;;;10.20;9.30;;;11.70;99.90;;;;;;6273621;22;20238;-46
2023/09/26 03:53:20;;;;;;;10.88;9.77;;;11.70;99.90;;;;;;6272481;22;20012;-46
2023/09/26 03:55:55;;;;;;;10.38;9.43;;;11.70;99.90;;;;;;6275728;22;20016;-48
2023/09/26 03:58:21;;;;;;;11.20;10.10;;;11.70;99.90;;;;;;6274893;22;20008;-50
2023/09/26 04:00:47;;;;;;;11.50;10.40;;;11.70;99.90;;;;;;6273565;22;20074;-46
2023/09/26 04:03:13;;;;;;;10.05;9.15;;;11.60;99.90;;;;;;6273623;22;20016;-46
2023/09/26 04:05:40;;;;;;;10.90;9.90;;;11.60;99.90;;;;;;6273210;22;20044;-46
2023/09/26 04:08:05;;;;;;;10.30;9.40;;;11.60;99.90;;;;;;6274940;22;20086;-50
2023/09/26 04:10:36;;;;;;;11.85;10.85;;;11.60;99.90;;;;;;6274604;22;20039;-47
2023/09/26 04:13:02;;;;;;;11.02;9.95;;;11.50;99.90;;;;;;6275527;22;20027;-47
2023/09/26 04:15:28;;;;;;;10.63;9.63;;;11.50;99.90;;;;;;6272989;22;20070;-47
2023/09/26 04:17:54;;;;;;;11.30;10.20;;;11.50;99.90;;;;;;6274614;22;20079;-46
2023/09/26 04:20:20;;;;;;;11.57;10.40;;;11.50;99.90;;;;;;6274286;22;20418;-49
2023/09/26 04:22:47;;;;;;;12.27;11.05;;;11.50;99.90;;;;;;6274524;22;20389;-47
2023/09/26 04:25:13;;;;;;;11.10;9.90;;;11.50;99.90;;;;;;6273452;22;20448;-45
2023/09/26 04:27:38;;;;;;;11.32;10.35;;;11.50;99.90;;;;;;6274919;22;20035;-48
2023/09/26 04:30:06;;;;;;;11.02;10.13;;;11.50;99.90;;;;;;6274443;22;20442;-45
2023/09/26 04:32:32;;;;;;;12.43;11.23;;;11.50;99.90;;;;;;6272482;22;20012;-47
2023/09/26 04:34:57;;;;;;;11.15;10.05;;;11.40;99.90;;;;;;6272537;22;20321;-47
2023/09/26 04:37:23;;;;;;;12.07;10.90;;;11.40;99.90;;;;;;6274239;22;20008;-45
2023/09/26 04:39:48;;;;;;;11.68;10.55;;;11.40;99.90;;;;;;6273973;22;20015;-46
2023/09/26 04:42:14;;;;;;;12.65;10.75;;;11.40;99.90;;;;;;6247390;22;20016;-48
2023/09/26 04:44:40;;;;;;;10.82;9.70;;;11.40;99.90;;;;;;6247014;22;20323;-45
2023/09/26 04:47:05;;;;;;;10.85;9.88;;;11.40;99.90;;;;;;6272789;22;20018;-48
2023/09/26 04:49:33;;;;;;;11.70;10.60;;;11.40;99.90;;;;;;6245885;22;20015;-49
2023/09/26 04:51:59;;;;;;;12.10;11.00;;;11.40;99.90;;;;;;6272906;22;20019;-49
2023/09/26 04:54:25;;;;;;;13.27;11.00;;;11.40;99.90;;;;;;6272188;22;20019;-46
2023/09/26 04:56:50;;;;;;;12.25;11.05;;;11.40;99.90;;;;;;6276505;22;20007;-46
2023/09/26 04:59:16;;;;;;;12.20;10.93;;;11.40;99.90;;;;;;6246117;22;20085;-46
2023/09/26 05:01:42;;;;;;;13.27;11.90;;;11.40;99.90;;;;;;6273088;22;20022;-46
2023/09/26 05:04:08;;;;;;;13.98;12.68;;;11.40;99.90;;;;;;6273575;22;20035;-46
2023/09/26 05:06:34;;;;;;;12.15;10.98;;;11.40;99.90;;;;;;6246702;22;20352;-47
2023/09/26 05:08:59;;;;;;;12.75;11.45;;;11.40;99.90;;;;;;6274488;22;20046;-47
2023/09/26 05:11:27;;;;;;;12.07;10.98;;;11.50;99.90;;;;;;6274903;22;20015;-46
2023/09/26 05:13:53;;;;;;;11.40;10.45;;;11.60;99.90;;;;;;6272968;22;20038;-46
2023/09/26 05:16:19;;;;;;;11.77;10.68;;;11.60;99.90;;;;;;6269576;22;20451;-48
2023/09/26 05:18:44;;;;;;;12.73;11.43;;;11.70;99.90;;;;;;6270911;22;20027;-47
2023/09/26 05:21:11;;;;;;;11.32;10.27;;;11.70;99.90;;;;;;6271166;22;20095;-47
2023/09/26 05:23:37;;;;;;;13.57;11.38;;;11.80;99.90;;;;;;6271868;22;20266;-46
2023/09/26 05:26:07;;;;;;;12.00;10.90;;;11.80;99.90;;;;;;6274390;22;20016;-47
2023/09/26 05:28:33;;;;;;;11.82;10.63;;;11.90;99.90;;;;;;6273384;22;20035;-47
2023/09/26 05:30:58;;;;;;;11.10;10.05;;;11.90;99.90;;;;;;6273047;22;20012;-48
2023/09/26 05:33:24;;;;;;;11.82;10.73;;;11.90;99.90;;;;;;6273039;22;20015;-49
2023/09/26 05:35:49;;;;;;;12.05;10.95;;;12.00;99.90;;;;;;6272035;22;20012;-49
2023/09/26 05:38:15;;;;;;;13.10;11.43;;;12.00;99.90;;;;;;6272102;22;20015;-46
2023/09/26 05:40:41;;;;;;;11.43;10.32;;;12.10;99.90;;;;;;6272769;22;20023;-47
2023/09/26 05:43:06;;;;;;;11.50;10.40;;;12.10;99.90;;;;;;6275005;22;20018;-47
2023/09/26 05:45:32;;;;;;;11.98;10.98;;;12.10;99.90;;;;;;6274105;22;20035;-48
2023/09/26 05:47:58;;;;;;;11.23;10.02;;;12.10;99.90;;;;;;6274285;22;20392;-48
2023/09/26 05:50:23;;;;;;;12.18;10.98;;;12.10;99.90;;;;;;6273659;22;20098;-48
2023/09/26 05:52:49;;;;;;;13.75;10.32;;;12.20;99.90;;;;;;6273820;22;20007;-49
2023/09/26 05:55:15;;;;;;;11.02;9.98;;;12.20;99.90;;;;;;6246523;22;20031;-50
2023/09/26 05:57:40;;;;;;;11.48;10.48;;;12.30;99.90;;;;;;6277211;22;20381;-48
2023/09/26 06:00:12;;;;;;;11.68;10.60;;;12.30;99.90;;;;;;6273512;22;20314;-47
2023/09/26 06:02:38;;;;;;;11.90;10.80;;;12.30;99.90;;;;;;6273245;22;20019;-45
2023/09/26 06:05:04;;;;;;;11.38;10.27;;;12.40;99.90;;;;;;6272354;22;20012;-49
2023/09/26 06:07:30;;;;;;;11.40;10.27;;;12.40;99.90;;;;;;6271071;22;20086;-46
2023/09/26 06:09:56;;;;;;;10.50;9.60;;;12.50;99.90;;;;;;6271949;22;20038;-45
2023/09/26 06:12:22;;;;;;;10.93;9.93;;;12.50;99.90;;;;;;6272784;22;20310;-47
2023/09/26 06:14:47;;;;;;;10.93;9.88;;;12.60;99.90;;;;;;6245790;22;20023;-47
2023/09/26 06:17:13;;;;;;;11.00;9.90;;;12.60;99.90;;;;;;6272808;22;20019;-46
2023/09/26 06:19:39;;;;;;;11.35;10.25;;;12.70;99.90;;;;;;6273023;22;20098;-48
2023/09/26 06:22:05;;;;;;;11.63;10.45;;;12.70;99.90;;;;;;6273758;22;20055;-46
2023/09/26 06:24:31;;;;;;;10.77;9.70;;;12.80;99.90;;;;;;6274907;22;20315;-48
2023/09/26 06:26:57;;;;;;;10.73;9.77;;;12.90;99.90;;;;;;6275951;22;20048;-47
2023/09/26 06:29:22;;;;;;;11.75;10.18;;;13.00;99.90;;;;;;6275775;22;20035;-46
2023/09/26 06:31:48;;;;;;;12.63;9.55;;;13.10;99.90;;;;;;6276735;22;20016;-47
2023/09/26 06:34:14;;;;;;;10.70;9.73;;;13.10;99.90;;;;;;6276584;22;20035;-46
2023/09/26 06:36:40;;;;;;;10.23;9.23;;;13.20;99.90;;;;;;6275483;22;20423;-46
2023/09/26 06:39:06;;;;;;;10.50;9.50;;;13.30;99.90;;;;;;6276259;22;20015;-47
2023/09/26 06:41:32;;;;;;;10.70;9.65;;;;;;;;;;6276689;22;20016;-47
2023/09/26 06:43:58;;;;;;;10.70;9.70;;;13.40;99.90;;;;;;6247522;22;20097;-46
2023/09/26 06:46:23;;;;;;;10.40;9.30;;;13.40;99.90;;;;;;6246795;22;20016;-47
2023/09/26 06:48:49;;;;;;;9.95;9.05;;;13.40;99.90;;;;;;6246476;22;20024;-46
2023/09/26 06:51:15;;;;;;;10.23;9.23;;;13.40;99.90;;;;;;6273007;22;20047;-46
2023/09/26 06:53:40;;;;;;;10.93;9.77;;;13.50;99.90;;;;;;6247608;22;20047;-45
2023/09/26 06:56:07;;;;;;;11.40;10.38;;;13.50;99.90;;;;;;6275652;22;20031;-46
2023/09/26 06:58:34;;;;;;;10.53;9.53;;;13.50;99.90;;;;;;6250519;22;20022;-47
2023/09/26 07:01:00;;;;;;;11.90;8.95;;;13.60;99.90;;;;;;6276546;22;20012;-47
2023/09/26 07:03:29;;;;;;;11.50;10.20;;;13.60;99.90;;;;;;6277211;22;20046;-46
2023/09/26 07:05:56;;;;;;;12.63;11.25;;;;;;;;;;6275147;22;20023;-46
2023/09/26 07:08:22;;;;;;;10.52;9.43;;;;;;;;;;6276004;22;20374;-46
2023/09/26 07:10:49;;;;;;;9.75;8.85;;;;;;;;;;6274825;22;20051;-47
2023/09/26 07:13:15;;;;;;;12.88;9.45;;;13.80;99.90;;;;;;6275661;22;20090;-50
2023/09/26 07:15:42;;;;;;;10.32;9.13;;;13.80;99.90;;;;;;6275462;22;20065;-45
2023/09/26 07:18:09;;;;;;;10.93;9.82;;;13.80;99.90;;;;;;6276035;22;20170;-45
2023/09/26 07:20:36;;;;;;;11.32;10.23;;;13.90;99.90;;;;;;6247880;22;20024;-46
2023/09/26 07:23:03;;;;;;;13.57;10.77;;;14.00;99.90;;;;;;6275933;22;20019;-45
2023/09/26 07:25:30;;;;;;;10.52;9.40;;;14.10;99.90;;;;;;6276151;22;20349;-45
2023/09/26 07:27:56;;;;;;;11.43;10.23;;;14.30;99.90;;;;;;6275921;22;20023;-49
2023/09/26 07:30:22;;;;;;;18.45;11.82;;;14.50;99.90;;;;;;6277132;22;20439;-47
2023/09/26 07:32:48;;;;;;;11.27;10.18;;;14.40;99.90;;;;;;6277196;22;20050;-46
2023/09/26 07:35:13;;;;;;;11.05;9.40;;;14.50;99.90;;;;;;6276394;22;20104;-46
2023/09/26 07:37:39;;;;;;;10.85;9.75;;;14.60;99.90;;;;;;6277040;22;20008;-46
2023/09/26 07:40:08;;;;;;;10.50;9.40;;;14.70;99.90;;;;;;6277530;22;20411;-45
2023/09/26 07:42:35;;;;;;;12.20;10.50;;;14.90;99.90;;;;;;6249105;22;20023;-48
2023/09/26 07:45:01;;;;;;;10.18;9.18;;;15.00;99.90;;;;;;6249908;22;20016;-46
2023/09/26 07:47:27;;;;;;;10.63;9.63;;;15.20;99.90;;;;;;6247854;22;20054;-46
2023/09/26 07:50:01;;;;;;;10.48;9.43;;;15.40;99.90;;;;;;6247291;22;20020;-46
2023/09/26 07:52:52;;;;;;;10.70;9.70;;;15.40;99.90;;;;;;6275059;22;20105;-48
2023/09/26 07:55:28;;;;;;;12.13;9.27;;;15.50;99.90;;;;;;6248394;22;20024;-47
2023/09/26 07:58:12;;;;;;;10.38;9.32;;;15.70;99.90;;;;;;6277684;22;20047;-47
2023/09/26 08:01:00;;;;;;;11.20;9.07;;;15.80;99.90;;;;;;6254237;22;20026;-48
2023/09/26 08:03:51;;;;;;;12.63;9.48;;;16.00;99.90;;;;;;6243118;22;20345;-46
2023/09/26 08:06:42;;;;;;;9.77;8.88;;;16.00;99.90;;;;;;6243918;22;20023;-45
2023/09/26 08:09:23;;;;;;;9.73;8.82;;;16.00;99.90;;;;;;6238728;22;20016;-45
2023/09/26 08:11:51;;;;;;;10.07;9.07;;;16.00;99.90;;;;;;6270959;22;20061;-46
2023/09/26 08:14:17;;;;;;;11.23;10.23;;;16.10;99.90;;;;;;6271099;22;20022;-48
2023/09/26 08:16:43;;;;;;;10.00;9.00;;;16.20;99.90;;;;;;6274392;22;20020;-45
2023/09/26 08:19:09;;;;;;;10.43;9.30;;;16.10;99.90;;;;;;6274793;22;20024;-45
2023/09/26 08:21:35;;;;;;;10.95;9.95;;;16.30;99.90;;;;;;6275157;22;20047;-44
2023/09/26 08:24:00;;;;;;;11.43;10.32;;;16.10;99.90;;;;;;6275965;22;20019;-49
2023/09/26 08:26:26;;;;;;;10.43;9.43;;;16.00;99.90;;;;;;6275364;22;20012;-48
2023/09/26 08:28:52;;;;;;;10.88;9.77;;;16.10;99.90;;;;;;6273236;22;20012;-47
2023/09/26 08:31:17;;;;;;;10.63;9.05;;;16.20;99.90;;;;;;6275134;22;20999;-49
2023/09/26 08:33:43;;;;;;;13.60;9.18;;;16.50;99.90;;;;;;6272696;22;20354;-46
2023/09/26 08:36:18;;;;;;;10.07;9.18;;;16.70;99.90;;;;;;6245483;22;20320;-46
2023/09/26 08:38:45;;;;;;;11.32;9.70;;;16.70;99.90;;;;;;6246767;22;20019;-44
2023/09/26 08:41:11;;;;;;;11.77;9.03;;;16.60;99.90;;;;;;6273388;22;20043;-44
2023/09/26 08:43:37;;;;;;;9.68;8.77;;;16.70;99.90;;;;;;6272308;22;20016;-46
2023/09/26 08:46:05;;;;;;;10.50;9.50;;;16.70;99.90;;;;;;6272831;22;20062;-45
2023/09/26 08:48:31;;;;;;;9.80;8.90;;;16.90;99.90;;;;;;6272885;22;20077;-44
2023/09/26 08:50:56;;;;;;;10.10;8.90;;;17.10;99.90;;;;;;6274135;22;20335;-45
2023/09/26 08:53:22;;;;;;;10.25;9.25;;;17.10;99.90;;;;;;6246429;22;20011;-45
2023/09/26 08:55:50;;;;;;;9.60;8.40;;;17.00;99.90;;;;;;6275324;22;20368;-49
2023/09/26 08:58:19;;;;;;;9.30;8.35;;;17.20;99.90;;;;;;6277108;22;20071;-47
2023/09/26 09:00:45;;;;;;;8.95;8.15;;;17.10;99.90;;;;;;6277021;22;20475;-44
2023/09/26 09:03:11;;;;;;;9.20;8.32;;;17.30;99.90;;;;;;6275348;22;20476;-45
2023/09/26 09:05:36;;;;;;;9.05;8.15;;;17.50;99.90;;;;;;6275119;22;20034;-47
2023/09/26 09:08:03;;;;;;;9.60;8.13;;;17.60;99.90;;;;;;6274112;22;20465;-46
2023/09/26 09:10:29;;;;;;;10.02;8.15;;;17.70;99.90;;;;;;6274913;22;20073;-45
2023/09/26 09:13:04;;;;;;;9.40;8.60;;;17.60;99.90;;;;;;6274643;22;20401;-48
2023/09/26 09:15:30;;;;;;;9.52;8.32;;;17.50;99.90;;;;;;6246972;22;20451;-47
2023/09/26 09:17:57;;;;;;;8.98;7.80;;;17.60;99.90;;;;;;6274169;22;20015;-46
2023/09/26 09:20:34;;;;;;;9.70;8.35;;;17.60;99.90;;;;;;6274768;22;20371;-45
2023/09/26 09:23:03;;;;;;;8.90;8.00;;;17.70;99.90;;;;;;6274091;22;20012;-45
2023/09/26 09:25:33;;;;;;;8.80;7.90;;;18.00;99.90;;;;;;6275353;22;20035;-46
2023/09/26 09:27:59;;;;;;;8.60;7.57;;;18.20;99.90;;;;;;6273973;22;20024;-48
2023/09/26 09:30:25;;;;;;;8.32;7.53;;;18.30;99.90;;;;;;6274622;22;20373;-49
2023/09/26 09:32:50;;;;;;;9.73;7.68;;;18.40;99.90;;;;;;6274887;22;20031;-46
2023/09/26 09:35:18;;;;;;;8.93;8.02;;;18.40;99.90;;;;;;6275188;22;20420;-47
2023/09/26 09:37:45;;;;;;;9.00;8.13;;;18.10;99.90;;;;;;6274036;22;20444;-48
2023/09/26 09:40:15;;;;;;;;;;;18.20;99.90;;;;;;6275250;22;20465;-45
2023/09/26 09:42:41;;;;;;;10.63;8.05;;;18.20;99.90;;;;;;6274646;22;19923;-46
2023/09/26 09:45:09;;;;;;;10.18;8.40;;;18.40;99.90;;;;;;6274325;22;20016;-47
2023/09/26 09:47:37;;;;;;;8.80;7.72;;;18.40;99.90;;;;;;6275371;22;20047;-48
2023/09/26 09:50:05;;;;;;;9.65;7.88;;;18.50;99.90;;;;;;6274958;22;20069;-48
2023/09/26 09:52:33;;;;;;;9.13;8.32;;;18.30;99.90;;;;;;6274054;22;20007;-47
2023/09/26 09:55:03;;;;;;;9.63;8.40;;;18.40;99.90;;;;;;6275044;22;20382;-46
2023/09/26 09:57:33;;;;;;;9.30;8.05;;;18.60;99.90;;;;;;6276008;22;20106;-46
2023/09/26 10:00:00;;;;;;;10.30;8.25;;;18.50;99.90;;;;;;6277673;22;20077;-48
2023/09/26 10:02:26;;;;;;;9.27;8.30;;;18.70;99.90;;;;;;6277624;22;20016;-45
2023/09/26 10:04:56;;;;;;;8.23;7.40;;;18.90;99.90;;;;;;6249168;22;20342;-47
2023/09/26 10:07:25;;;;;;;11.73;8.88;;;19.00;99.90;;;;;;6277012;22;20019;-49
2023/09/26 10:09:52;;;;;;;9.00;8.05;;;19.10;99.90;;;;;;6276442;22;20016;-46
2023/09/26 10:12:19;;;;;;;9.68;7.57;;;19.70;99.90;;;;;;6276196;22;20043;-46
2023/09/26 10:14:45;;;;;;;10.25;7.65;;;20.00;99.90;;;;;;6276314;22;20019;-46
2023/09/26 10:17:11;;;;;;;8.00;7.18;;;20.00;99.90;;;;;;6276210;22;20054;-46
2023/09/26 10:19:39;;;;;;;9.65;7.00;;;20.20;99.90;;;;;;6276774;22;20031;-46
2023/09/26 10:22:20;;;;;;;7.85;6.82;;;20.00;99.90;;;;;;6275780;22;20380;-46
2023/09/26 10:24:50;;;;;;;8.15;7.10;;;20.00;99.90;;;;;;6275086;22;20065;-49
2023/09/26 10:27:23;;;;;;;9.88;7.18;;;20.10;99.90;;;;;;6276036;22;20023;-46
2023/09/26 10:29:52;;;;;;;8.18;6.65;;;20.20;99.90;;;;;;6276742;22;20038;-47
2023/09/26 10:32:34;;;;;;;7.78;6.60;;;20.50;99.90;;;;;;6277311;22;20019;-48
2023/09/26 10:35:22;;;;;;;6.57;5.97;;;20.50;99.90;;;;;;6275759;22;20440;-50
2023/09/26 10:37:49;;;;;;;7.53;6.65;;;;;;;;;;6249545;22;20061;-46
2023/09/26 10:40:18;;;;;;;7.85;7.03;;;20.70;99.90;;;;;;6249203;22;20019;-47
2023/09/26 10:42:47;;;;;;;7.78;6.15;;;20.90;99.90;;;;;;6276944;22;20007;-46
2023/09/26 10:45:13;;;;;;;8.23;6.50;;;20.80;99.90;;;;;;6276599;22;20016;-46
2023/09/26 10:47:40;;;;;;;7.20;6.50;;;20.90;99.90;;;;;;6276574;22;20016;-47
2023/09/26 10:50:13;;;;;;;9.90;6.20;;;20.80;99.90;;;;;;6247991;22;20444;-45
2023/09/26 10:52:48;;;;;;;7.63;6.40;;;21.10;99.90;;;;;;6276493;22;20345;-47
2023/09/26 10:55:16;;;;;;;7.63;6.28;;;21.00;99.90;;;;;;6276132;22;20431;-47
2023/09/26 10:57:44;;;;;;;9.25;6.18;;;21.00;99.90;;;;;;6276973;22;20038;-50
2023/09/26 11:00:11;;;;;;;7.47;6.30;;;21.20;99.90;;;;;;6276148;22;20308;-48
2023/09/26 11:02:37;;;;;;;7.78;5.90;;;21.20;99.90;;;;;;6275531;22;20007;-48
2023/09/26 11:05:12;;;;;;;8.98;6.32;;;21.40;99.90;;;;;;6277034;22;20015;-47
2023/09/26 11:07:38;;;;;;;6.90;6.05;;;21.50;99.90;;;;;;6276227;22;20024;-47
2023/09/26 11:10:05;;;;;;;6.03;5.32;;;21.40;99.90;;;;;;6276729;22;20034;-48
2023/09/26 11:12:32;;;;;;;7.18;5.95;;;;;;;;;;6248702;22;20099;-50
2023/09/26 11:15:00;;;;;;;6.13;4.85;;;21.60;99.90;;;;;;6276354;22;20281;-48
2023/09/26 11:17:27;;;;;;;6.65;5.25;;;21.90;99.90;;;;;;6275315;22;20014;-46
2023/09/26 11:19:57;;;;;;;5.55;4.90;;;21.80;99.90;;;;;;6275814;22;20027;-46
2023/09/26 11:22:25;;;;;;;5.82;4.72;;;21.70;99.90;;;;;;6276300;22;20087;-47
2023/09/26 11:25:05;;;;;;;7.03;5.53;;;21.90;99.90;;;;;;6249033;22;20023;-46
2023/09/26 11:27:31;;;;;;;6.20;5.00;;;21.90;99.90;;;;;;6275931;22;20038;-49
2023/09/26 11:30:00;;;;;;;6.75;5.50;;;22.10;99.90;;;;;;6275969;22;20019;-46
2023/09/26 11:32:26;;;;;;;5.82;5.07;;;22.20;99.90;;;;;;6275799;22;20012;-47
2023/09/26 11:34:51;;;;;;;7.25;5.43;;;22.10;99.90;;;;;;6275837;22;20019;-46
2023/09/26 11:37:17;;;;;;;9.07;4.90;;;;;;;;;;6249162;22;20020;-48
2023/09/26 11:39:51;;;;;;;5.85;4.90;;;22.40;99.90;;;;;;6276612;22;20023;-47
2023/09/26 11:42:17;;;;;;;5.65;4.60;;;22.50;99.90;;;;;;6276593;22;20020;-46
2023/09/26 11:44:54;;;;;;;5.68;4.90;;;22.40;99.90;;;;;;6275954;22;20091;-46
2023/09/26 11:47:25;;;;;;;7.93;4.88;;;22.40;99.90;;;;;;6276113;22;20019;-47
2023/09/26 11:49:52;;;;;;;9.90;5.07;;;22.50;99.90;;;;;;6275653;22;20022;-47
2023/09/26 11:52:18;;;;;;;5.82;5.28;;;22.40;99.90;;;;;;6275145;22;20092;-47
2023/09/26 11:54:44;;;;;;;5.50;4.90;;;22.50;99.90;;;;;;6275764;22;20008;-49
2023/09/26 11:57:14;;;;;;;6.57;4.88;;;22.50;99.90;;;;;;6277350;22;20018;-46
2023/09/26 11:59:42;;;;;;;6.13;4.97;;;22.50;99.90;;;;;;6275801;22;20500;-47
2023/09/26 12:02:08;;;;;;;7.80;5.80;;;22.60;99.90;;;;;;6276062;22;20057;-47
2023/09/26 12:04:35;;;;;;;7.15;5.13;;;22.60;99.90;;;;;;6276181;22;20011;-47
2023/09/26 12:07:01;;;;;;;6.13;4.83;;;22.70;99.90;;;;;;6276022;22;20102;-46
2023/09/26 12:09:28;;;;;;;5.70;4.93;;;22.80;99.90;;;;;;6275735;22;20242;-47
2023/09/26 12:11:55;;;;;;;5.68;5.18;;;22.80;99.90;;;;;;6275531;22;20042;-47
2023/09/26 12:14:21;;;;;;;5.45;4.90;;;22.80;99.90;;;;;;6276242;22;20344;-49
2023/09/26 12:16:50;;;;;;;6.82;5.25;;;22.70;99.90;;;;;;6248320;22;20397;-47
2023/09/26 12:19:20;;;;;;;4.78;4.38;;;22.80;99.90;;;;;;6275889;22;20012;-46
2023/09/26 12:21:47;;;;;;;6.78;5.30;;;22.90;99.90;;;;;;6275578;22;20312;-46
2023/09/26 12:24:14;;;;;;;5.57;5.07;;;22.80;99.90;;;;;;6275943;22;20031;-46
2023/09/26 12:26:45;;;;;;;6.30;4.85;;;22.90;99.90;;;;;;6275797;22;20046;-46
2023/09/26 12:29:11;;;;;;;5.60;4.85;;;23.00;99.90;;;;;;6276409;22;20116;-47
2023/09/26 12:31:37;;;;;;;7.32;5.00;;;22.80;99.90;;;;;;6275273;22;20023;-49
2023/09/26 12:34:03;;;;;;;8.25;5.60;;;22.90;99.90;;;;;;6275328;22;20085;-46
2023/09/26 12:36:29;;;;;;;5.60;5.10;;;22.90;99.90;;;;;;6275506;22;20099;-46
2023/09/26 12:38:55;;;;;;;6.22;5.63;;;22.90;99.90;;;;;;6275700;22;20012;-47
2023/09/26 12:41:21;;;;;;;6.95;5.75;;;22.80;99.90;;;;;;6275303;22;20074;-46